sensor_id;sensor_type;location;lat;lon;timestamp;pressure;altitude;pressure_sealevel;temperature;humidity
3544;BME280;1786;52.870;9.578;2023-05-21T00:01:03;101084.38;;;26.26;42.16
3544;BME280;1786;52.870;9.578;2023-05-21T00:03:32;101078.47;;;26.38;41.82
3544;BME280;1786;52.870;9.578;2023-05-21T00:06:02;101067.41;;;25.65;43.38
3544;BME280;1786;52.870;9.578;2023-05-21T00:08:29;101064.66;;;25.35;43.34
3544;BME280;1786;52.870;9.578;2023-05-21T00:10:56;101061.66;;;25.68;43.58
3544;BME280;1786;52.870;9.578;2023-05-21T00:13:22;101069.16;;;25.96;42.31
3544;BME280;1786;52.870;9.578;2023-05-21T00:15:49;101060.09;;;26.03;42.74
3544;BME280;1786;52.870;9.578;2023-05-21T00:18:16;101060.38;;;26.23;42.18
3544;BME280;1786;52.870;9.578;2023-05-21T00:20:43;101055.69;;;26.17;42.29
3544;BME280;1786;52.870;9.578;2023-05-21T00:23:11;101054.38;;;25.83;42.64
3544;BME280;1786;52.870;9.578;2023-05-21T00:25:37;101048.06;;;26.21;42.41
3544;BME280;1786;52.870;9.578;2023-05-21T00:28:04;101044.69;;;25.89;42.60
3544;BME280;1786;52.870;9.578;2023-05-21T00:30:31;101042.59;;;25.76;42.90
3544;BME280;1786;52.870;9.578;2023-05-21T00:32:58;101035.50;;;25.60;42.98
3544;BME280;1786;52.870;9.578;2023-05-21T00:35:28;101039.53;;;26.24;42.03
3544;BME280;1786;52.870;9.578;2023-05-21T00:37:55;101044.47;;;26.20;41.83
3544;BME280;1786;52.870;9.578;2023-05-21T00:40:22;101037.84;;;26.23;41.89
3544;BME280;1786;52.870;9.578;2023-05-21T00:42:49;101038.97;;;26.28;41.91
3544;BME280;1786;52.870;9.578;2023-05-21T00:45:15;101028.38;;;25.44;43.10
3544;BME280;1786;52.870;9.578;2023-05-21T00:47:42;101040.50;;;25.86;42.14
3544;BME280;1786;52.870;9.578;2023-05-21T00:50:10;101028.09;;;25.54;42.77
3544;BME280;1786;52.870;9.578;2023-05-21T00:52:37;101033.94;;;26.10;41.95
3544;BME280;1786;52.870;9.578;2023-05-21T00:55:08;101030.06;;;25.75;42.47
3544;BME280;1786;52.870;9.578;2023-05-21T00:57:35;101027.25;;;25.16;43.62
3544;BME280;1786;52.870;9.578;2023-05-21T01:00:03;101022.16;;;24.98;44.02
3544;BME280;1786;52.870;9.578;2023-05-21T01:02:32;101024.72;;;24.91;44.06
3544;BME280;1786;52.870;9.578;2023-05-21T01:05:00;101026.78;;;25.88;42.43
3544;BME280;1786;52.870;9.578;2023-05-21T01:07:29;101024.66;;;25.45;42.98
3544;BME280;1786;52.870;9.578;2023-05-21T01:09:56;101024.13;;;26.24;41.60
3544;BME280;1786;52.870;9.578;2023-05-21T01:12:23;101019.69;;;24.88;43.86
3544;BME280;1786;52.870;9.578;2023-05-21T01:14:50;101011.97;;;25.61;42.65
3544;BME280;1786;52.870;9.578;2023-05-21T01:17:17;101019.06;;;25.77;42.23
3544;BME280;1786;52.870;9.578;2023-05-21T01:19:46;101018.00;;;26.01;42.02
3544;BME280;1786;52.870;9.578;2023-05-21T01:22:13;101006.06;;;25.28;42.95
3544;BME280;1786;52.870;9.578;2023-05-21T01:24:44;101008.69;;;25.13;43.41
3544;BME280;1786;52.870;9.578;2023-05-21T01:27:13;101015.19;;;25.26;43.07
3544;BME280;1786;52.870;9.578;2023-05-21T01:29:40;100999.34;;;25.38;43.18
3544;BME280;1786;52.870;9.578;2023-05-21T01:32:25;101003.47;;;25.64;42.74
3544;BME280;1786;52.870;9.578;2023-05-21T01:35:08;100997.41;;;25.62;42.71
3544;BME280;1786;52.870;9.578;2023-05-21T01:37:43;101003.00;;;25.45;43.02
3544;BME280;1786;52.870;9.578;2023-05-21T01:40:33;100991.34;;;25.75;42.41
3544;BME280;1786;52.870;9.578;2023-05-21T01:43:02;101001.59;;;25.50;42.31
3544;BME280;1786;52.870;9.578;2023-05-21T01:45:32;100991.38;;;25.22;42.77
3544;BME280;1786;52.870;9.578;2023-05-21T01:48:02;100998.88;;;25.12;43.08
3544;BME280;1786;52.870;9.578;2023-05-21T01:50:31;100996.88;;;24.91;43.54
3544;BME280;1786;52.870;9.578;2023-05-21T01:52:59;100991.81;;;25.48;42.75
3544;BME280;1786;52.870;9.578;2023-05-21T01:55:31;100996.91;;;25.05;43.44
3544;BME280;1786;52.870;9.578;2023-05-21T01:57:58;100992.16;;;25.08;43.28
3544;BME280;1786;52.870;9.578;2023-05-21T02:00:28;100996.13;;;25.87;41.82
3544;BME280;1786;52.870;9.578;2023-05-21T02:02:55;100998.00;;;26.38;41.07
3544;BME280;1786;52.870;9.578;2023-05-21T02:05:22;100993.28;;;26.25;41.39
3544;BME280;1786;52.870;9.578;2023-05-21T02:07:49;100983.50;;;25.35;42.25
3544;BME280;1786;52.870;9.578;2023-05-21T02:10:18;100990.50;;;24.21;44.31
3544;BME280;1786;52.870;9.578;2023-05-21T02:12:44;100994.72;;;25.77;41.96
3544;BME280;1786;52.870;9.578;2023-05-21T02:15:11;100994.19;;;25.96;41.30
3544;BME280;1786;52.870;9.578;2023-05-21T02:17:40;100989.72;;;25.21;42.48
3544;BME280;1786;52.870;9.578;2023-05-21T02:20:11;100988.53;;;25.83;41.45
3544;BME280;1786;52.870;9.578;2023-05-21T02:22:40;100990.69;;;26.17;40.88
3544;BME280;1786;52.870;9.578;2023-05-21T02:25:08;100986.22;;;25.95;41.36
3544;BME280;1786;52.870;9.578;2023-05-21T02:27:36;100986.97;;;25.59;42.10
3544;BME280;1786;52.870;9.578;2023-05-21T02:30:04;100990.31;;;25.61;41.77
3544;BME280;1786;52.870;9.578;2023-05-21T02:32:32;100984.34;;;25.51;42.02
3544;BME280;1786;52.870;9.578;2023-05-21T02:35:00;100983.97;;;25.54;41.77
3544;BME280;1786;52.870;9.578;2023-05-21T02:37:30;100980.75;;;25.88;41.19
3544;BME280;1786;52.870;9.578;2023-05-21T02:40:04;100981.47;;;25.97;40.82
3544;BME280;1786;52.870;9.578;2023-05-21T02:42:32;100972.50;;;25.14;42.41
3544;BME280;1786;52.870;9.578;2023-05-21T02:44:59;100979.41;;;26.14;40.55
3544;BME280;1786;52.870;9.578;2023-05-21T02:47:27;100973.03;;;25.32;42.25
3544;BME280;1786;52.870;9.578;2023-05-21T02:49:54;100970.25;;;25.40;42.09
3544;BME280;1786;52.870;9.578;2023-05-21T02:52:22;100968.19;;;25.57;41.75
3544;BME280;1786;52.870;9.578;2023-05-21T02:54:50;100974.59;;;24.66;43.09
3544;BME280;1786;52.870;9.578;2023-05-21T02:57:17;100966.16;;;25.74;41.38
3544;BME280;1786;52.870;9.578;2023-05-21T02:59:44;100964.19;;;25.38;41.93
3544;BME280;1786;52.870;9.578;2023-05-21T03:02:11;100957.66;;;25.77;41.54
3544;BME280;1786;52.870;9.578;2023-05-21T03:04:38;100958.31;;;25.12;41.68
3544;BME280;1786;52.870;9.578;2023-05-21T03:07:13;100967.34;;;25.57;41.74
3544;BME280;1786;52.870;9.578;2023-05-21T03:09:40;100958.91;;;25.22;41.89
3544;BME280;1786;52.870;9.578;2023-05-21T03:12:08;100951.47;;;25.24;42.04
3544;BME280;1786;52.870;9.578;2023-05-21T03:14:35;100959.63;;;25.54;41.59
3544;BME280;1786;52.870;9.578;2023-05-21T03:17:02;100950.19;;;25.12;42.04
3544;BME280;1786;52.870;9.578;2023-05-21T03:19:32;100949.50;;;25.18;42.29
3544;BME280;1786;52.870;9.578;2023-05-21T03:22:03;100953.75;;;25.35;42.03
3544;BME280;1786;52.870;9.578;2023-05-21T03:24:33;100950.44;;;25.40;41.79
3544;BME280;1786;52.870;9.578;2023-05-21T03:27:02;100954.09;;;25.62;41.64
3544;BME280;1786;52.870;9.578;2023-05-21T03:29:32;100954.75;;;25.79;41.60
3544;BME280;1786;52.870;9.578;2023-05-21T03:32:01;100947.81;;;25.17;42.28
3544;BME280;1786;52.870;9.578;2023-05-21T03:34:29;100951.59;;;25.31;42.04
3544;BME280;1786;52.870;9.578;2023-05-21T03:36:57;100956.59;;;24.96;42.60
3544;BME280;1786;52.870;9.578;2023-05-21T03:39:24;100958.22;;;25.58;41.30
3544;BME280;1786;52.870;9.578;2023-05-21T03:41:53;100958.78;;;25.38;41.60
3544;BME280;1786;52.870;9.578;2023-05-21T03:44:27;100958.50;;;25.63;41.48
3544;BME280;1786;52.870;9.578;2023-05-21T03:47:10;100965.25;;;26.18;40.74
3544;BME280;1786;52.870;9.578;2023-05-21T03:49:37;100955.34;;;25.89;41.30
3544;BME280;1786;52.870;9.578;2023-05-21T03:52:05;100962.72;;;26.31;40.27
3544;BME280;1786;52.870;9.578;2023-05-21T03:54:32;100956.78;;;26.21;40.22
3544;BME280;1786;52.870;9.578;2023-05-21T03:57:03;100958.09;;;26.47;39.90
3544;BME280;1786;52.870;9.578;2023-05-21T03:59:31;100949.78;;;25.82;40.65
3544;BME280;1786;52.870;9.578;2023-05-21T04:01:58;100941.44;;;25.10;42.02
3544;BME280;1786;52.870;9.578;2023-05-21T04:04:25;100949.63;;;25.39;41.31
3544;BME280;1786;52.870;9.578;2023-05-21T04:06:55;100949.44;;;25.85;40.95
3544;BME280;1786;52.870;9.578;2023-05-21T04:09:22;100957.28;;;25.65;41.47
3544;BME280;1786;52.870;9.578;2023-05-21T04:11:50;100957.47;;;25.64;40.97
3544;BME280;1786;52.870;9.578;2023-05-21T04:14:17;100961.50;;;25.68;41.38
3544;BME280;1786;52.870;9.578;2023-05-21T04:16:44;100956.81;;;25.92;41.01
3544;BME280;1786;52.870;9.578;2023-05-21T04:19:11;100959.84;;;26.18;40.45
3544;BME280;1786;52.870;9.578;2023-05-21T04:21:38;100968.09;;;26.61;39.99
3544;BME280;1786;52.870;9.578;2023-05-21T04:24:06;100964.84;;;26.72;39.36
3544;BME280;1786;52.870;9.578;2023-05-21T04:26:56;100958.13;;;26.68;39.97
3544;BME280;1786;52.870;9.578;2023-05-21T04:29:28;100957.09;;;26.69;39.95
3544;BME280;1786;52.870;9.578;2023-05-21T04:31:56;100952.88;;;27.16;39.34
3544;BME280;1786;52.870;9.578;2023-05-21T04:34:23;100964.03;;;27.00;39.15
3544;BME280;1786;52.870;9.578;2023-05-21T04:36:50;100969.25;;;27.51;38.74
3544;BME280;1786;52.870;9.578;2023-05-21T04:39:17;100967.66;;;27.63;38.48
3544;BME280;1786;52.870;9.578;2023-05-21T04:41:44;100968.97;;;27.39;38.43
3544;BME280;1786;52.870;9.578;2023-05-21T04:44:11;100964.97;;;27.35;38.93
3544;BME280;1786;52.870;9.578;2023-05-21T04:46:41;100963.72;;;27.73;38.24
3544;BME280;1786;52.870;9.578;2023-05-21T04:49:11;100964.91;;;27.29;38.77
3544;BME280;1786;52.870;9.578;2023-05-21T04:51:38;100965.72;;;27.01;39.07
3544;BME280;1786;52.870;9.578;2023-05-21T04:54:05;100967.22;;;26.24;40.29
3544;BME280;1786;52.870;9.578;2023-05-21T04:56:33;100963.50;;;26.47;39.87
3544;BME280;1786;52.870;9.578;2023-05-21T04:59:00;100961.03;;;25.94;41.14
3544;BME280;1786;52.870;9.578;2023-05-21T05:01:32;100963.50;;;26.47;40.32
3544;BME280;1786;52.870;9.578;2023-05-21T05:04:00;100958.50;;;25.93;40.54
3544;BME280;1786;52.870;9.578;2023-05-21T05:06:27;100962.41;;;26.05;41.09
3544;BME280;1786;52.870;9.578;2023-05-21T05:08:54;100955.56;;;25.35;42.29
3544;BME280;1786;52.870;9.578;2023-05-21T05:11:21;100961.16;;;26.22;41.02
3544;BME280;1786;52.870;9.578;2023-05-21T05:13:50;100953.69;;;26.24;41.05
3544;BME280;1786;52.870;9.578;2023-05-21T05:16:17;100952.69;;;26.90;40.19
3544;BME280;1786;52.870;9.578;2023-05-21T05:18:51;100944.88;;;27.02;40.06
3544;BME280;1786;52.870;9.578;2023-05-21T05:21:19;100955.88;;;26.72;40.08
3544;BME280;1786;52.870;9.578;2023-05-21T05:23:46;100955.41;;;26.90;40.34
3544;BME280;1786;52.870;9.578;2023-05-21T05:26:13;100960.84;;;27.46;39.76
3544;BME280;1786;52.870;9.578;2023-05-21T05:28:40;100957.19;;;27.60;39.31
3544;BME280;1786;52.870;9.578;2023-05-21T05:31:07;100961.09;;;28.41;38.13
3544;BME280;1786;52.870;9.578;2023-05-21T05:33:34;100960.22;;;28.27;38.51
3544;BME280;1786;52.870;9.578;2023-05-21T05:36:01;100960.38;;;29.07;37.12
3544;BME280;1786;52.870;9.578;2023-05-21T05:38:28;100964.69;;;29.74;36.17
3544;BME280;1786;52.870;9.578;2023-05-21T05:40:55;100963.06;;;29.53;36.35
3544;BME280;1786;52.870;9.578;2023-05-21T05:43:24;100964.38;;;30.03;36.12
3544;BME280;1786;52.870;9.578;2023-05-21T05:45:51;100959.50;;;29.66;36.25
3544;BME280;1786;52.870;9.578;2023-05-21T05:48:18;100955.69;;;29.61;36.26
3544;BME280;1786;52.870;9.578;2023-05-21T05:50:46;100962.56;;;29.83;36.18
3544;BME280;1786;52.870;9.578;2023-05-21T05:53:13;100949.38;;;29.73;36.45
3544;BME280;1786;52.870;9.578;2023-05-21T05:55:40;100964.59;;;30.46;35.59
3544;BME280;1786;52.870;9.578;2023-05-21T05:58:06;100957.00;;;31.55;34.69
3544;BME280;1786;52.870;9.578;2023-05-21T06:00:46;100959.47;;;30.18;35.72
3544;BME280;1786;52.870;9.578;2023-05-21T06:03:13;100963.47;;;30.15;36.16
3544;BME280;1786;52.870;9.578;2023-05-21T06:05:41;100955.56;;;30.77;34.83
3544;BME280;1786;52.870;9.578;2023-05-21T06:08:07;100955.69;;;30.89;35.62
3544;BME280;1786;52.870;9.578;2023-05-21T06:10:34;100955.22;;;30.67;35.08
3544;BME280;1786;52.870;9.578;2023-05-21T06:13:02;100959.66;;;30.61;35.52
3544;BME280;1786;52.870;9.578;2023-05-21T06:15:29;100950.31;;;30.44;36.34
3544;BME280;1786;52.870;9.578;2023-05-21T06:17:55;100956.75;;;30.56;35.63
3544;BME280;1786;52.870;9.578;2023-05-21T06:20:22;100950.00;;;31.16;35.29
3544;BME280;1786;52.870;9.578;2023-05-21T06:22:49;100953.09;;;31.01;35.56
3544;BME280;1786;52.870;9.578;2023-05-21T06:25:16;100947.84;;;32.47;34.27
3544;BME280;1786;52.870;9.578;2023-05-21T06:27:43;100966.88;;;33.90;32.02
3544;BME280;1786;52.870;9.578;2023-05-21T06:30:17;100970.63;;;34.86;31.17
3544;BME280;1786;52.870;9.578;2023-05-21T06:32:43;100965.72;;;35.05;30.65
3544;BME280;1786;52.870;9.578;2023-05-21T06:35:11;100968.59;;;35.93;30.47
3544;BME280;1786;52.870;9.578;2023-05-21T06:37:37;100974.66;;;36.67;29.75
3544;BME280;1786;52.870;9.578;2023-05-21T06:40:05;100970.56;;;36.69;29.84
3544;BME280;1786;52.870;9.578;2023-05-21T06:42:32;100963.81;;;36.28;30.09
3544;BME280;1786;52.870;9.578;2023-05-21T06:45:17;100960.78;;;38.57;28.34
3544;BME280;1786;52.870;9.578;2023-05-21T06:47:44;100974.03;;;38.86;27.44
3544;BME280;1786;52.870;9.578;2023-05-21T06:50:11;100980.94;;;38.73;27.41
3544;BME280;1786;52.870;9.578;2023-05-21T06:52:38;100975.66;;;39.48;26.89
3544;BME280;1786;52.870;9.578;2023-05-21T06:55:05;100967.38;;;39.43;26.89
3544;BME280;1786;52.870;9.578;2023-05-21T06:57:52;100962.09;;;40.12;26.60
3544;BME280;1786;52.870;9.578;2023-05-21T07:00:19;100967.59;;;40.61;25.66
3544;BME280;1786;52.870;9.578;2023-05-21T07:02:47;100974.06;;;40.47;26.16
3544;BME280;1786;52.870;9.578;2023-05-21T07:05:14;100958.88;;;36.89;29.35
3544;BME280;1786;52.870;9.578;2023-05-21T07:07:41;100946.97;;;36.51;29.48
3544;BME280;1786;52.870;9.578;2023-05-21T07:10:08;100947.28;;;35.79;30.46
3544;BME280;1786;52.870;9.578;2023-05-21T07:12:37;100937.22;;;35.67;30.43
3544;BME280;1786;52.870;9.578;2023-05-21T07:15:03;100942.75;;;35.50;31.11
3544;BME280;1786;52.870;9.578;2023-05-21T07:17:30;100932.78;;;35.44;31.03
3544;BME280;1786;52.870;9.578;2023-05-21T07:19:57;100937.97;;;36.07;30.67
3544;BME280;1786;52.870;9.578;2023-05-21T07:22:24;100934.63;;;36.27;30.60
3544;BME280;1786;52.870;9.578;2023-05-21T07:24:53;100922.91;;;35.65;31.42
3544;BME280;1786;52.870;9.578;2023-05-21T07:27:20;100928.34;;;35.04;31.87
3544;BME280;1786;52.870;9.578;2023-05-21T07:29:53;100928.53;;;33.78;33.27
3544;BME280;1786;52.870;9.578;2023-05-21T07:32:20;100925.91;;;34.12;32.81
3544;BME280;1786;52.870;9.578;2023-05-21T07:34:47;100925.78;;;34.18;33.03
3544;BME280;1786;52.870;9.578;2023-05-21T07:37:14;100927.84;;;33.99;33.86
3544;BME280;1786;52.870;9.578;2023-05-21T07:39:41;100929.59;;;34.17;33.17
3544;BME280;1786;52.870;9.578;2023-05-21T07:42:08;100925.03;;;33.07;34.46
3544;BME280;1786;52.870;9.578;2023-05-21T07:44:35;100921.78;;;34.26;33.57
3544;BME280;1786;52.870;9.578;2023-05-21T07:47:01;100927.00;;;35.07;32.87
3544;BME280;1786;52.870;9.578;2023-05-21T07:49:28;100917.53;;;34.64;33.10
3544;BME280;1786;52.870;9.578;2023-05-21T07:51:56;100922.31;;;35.85;31.83
3544;BME280;1786;52.870;9.578;2023-05-21T07:54:23;100925.91;;;36.62;31.50
3544;BME280;1786;52.870;9.578;2023-05-21T07:56:50;100923.78;;;35.93;31.96
3544;BME280;1786;52.870;9.578;2023-05-21T07:59:42;100924.00;;;35.86;31.50
3544;BME280;1786;52.870;9.578;2023-05-21T08:02:09;100926.69;;;35.81;31.64
3544;BME280;1786;52.870;9.578;2023-05-21T08:04:37;100932.41;;;35.58;31.96
3544;BME280;1786;52.870;9.578;2023-05-21T08:07:07;100929.06;;;35.55;31.83
3544;BME280;1786;52.870;9.578;2023-05-21T08:09:35;100926.25;;;35.50;32.22
3544;BME280;1786;52.870;9.578;2023-05-21T08:12:02;100923.09;;;35.03;32.73
3544;BME280;1786;52.870;9.578;2023-05-21T08:14:29;100925.41;;;35.89;31.97
3544;BME280;1786;52.870;9.578;2023-05-21T08:16:55;100921.50;;;35.63;32.41
3544;BME280;1786;52.870;9.578;2023-05-21T08:19:22;100917.63;;;35.59;32.43
3544;BME280;1786;52.870;9.578;2023-05-21T08:21:49;100923.78;;;35.49;33.05
3544;BME280;1786;52.870;9.578;2023-05-21T08:24:19;100927.00;;;35.85;32.05
3544;BME280;1786;52.870;9.578;2023-05-21T08:26:46;100927.09;;;34.95;32.70
3544;BME280;1786;52.870;9.578;2023-05-21T08:29:15;100920.16;;;35.65;32.31
3544;BME280;1786;52.870;9.578;2023-05-21T08:31:42;100917.97;;;35.89;31.89
3544;BME280;1786;52.870;9.578;2023-05-21T08:34:08;100919.19;;;34.82;33.06
3544;BME280;1786;52.870;9.578;2023-05-21T08:36:45;100915.03;;;34.62;33.82
3544;BME280;1786;52.870;9.578;2023-05-21T08:39:33;100919.91;;;34.43;33.92
3544;BME280;1786;52.870;9.578;2023-05-21T08:42:14;100922.66;;;33.86;34.63
3544;BME280;1786;52.870;9.578;2023-05-21T08:45:04;100923.34;;;33.93;34.06
3544;BME280;1786;52.870;9.578;2023-05-21T08:47:34;100917.09;;;33.69;34.83
3544;BME280;1786;52.870;9.578;2023-05-21T08:50:03;100914.78;;;34.18;34.76
3544;BME280;1786;52.870;9.578;2023-05-21T08:52:31;100917.00;;;35.18;32.90
3544;BME280;1786;52.870;9.578;2023-05-21T08:54:58;100923.09;;;35.03;33.68
3544;BME280;1786;52.870;9.578;2023-05-21T08:57:26;100924.44;;;35.17;33.15
3544;BME280;1786;52.870;9.578;2023-05-21T08:59:54;100919.28;;;35.21;33.17
3544;BME280;1786;52.870;9.578;2023-05-21T09:02:25;100921.78;;;35.61;32.68
3544;BME280;1786;52.870;9.578;2023-05-21T09:04:52;100923.81;;;35.71;32.73
3544;BME280;1786;52.870;9.578;2023-05-21T09:07:24;100931.34;;;35.81;32.93
3544;BME280;1786;52.870;9.578;2023-05-21T09:10:13;100931.28;;;36.52;31.67
3544;BME280;1786;52.870;9.578;2023-05-21T09:12:41;100933.00;;;37.28;30.91
3544;BME280;1786;52.870;9.578;2023-05-21T09:15:08;100926.59;;;37.22;30.74
3544;BME280;1786;52.870;9.578;2023-05-21T09:17:36;100926.25;;;37.56;30.34
3544;BME280;1786;52.870;9.578;2023-05-21T09:20:23;100920.34;;;36.94;30.80
3544;BME280;1786;52.870;9.578;2023-05-21T09:22:55;100924.06;;;36.73;31.44
3544;BME280;1786;52.870;9.578;2023-05-21T09:25:23;100913.16;;;37.31;31.41
3544;BME280;1786;52.870;9.578;2023-05-21T09:27:55;100913.78;;;37.43;31.08
3544;BME280;1786;52.870;9.578;2023-05-21T09:30:22;100910.84;;;37.65;30.56
3544;BME280;1786;52.870;9.578;2023-05-21T09:32:56;100917.09;;;37.45;30.88
3544;BME280;1786;52.870;9.578;2023-05-21T09:35:23;100923.00;;;36.84;31.07
3544;BME280;1786;52.870;9.578;2023-05-21T09:37:51;100912.38;;;38.03;30.40
3544;BME280;1786;52.870;9.578;2023-05-21T09:40:20;100928.47;;;38.63;29.56
3544;BME280;1786;52.870;9.578;2023-05-21T09:42:53;100928.69;;;39.23;29.49
3544;BME280;1786;52.870;9.578;2023-05-21T09:45:21;100929.31;;;38.99;29.57
3544;BME280;1786;52.870;9.578;2023-05-21T09:47:52;100921.84;;;38.48;30.07
3544;BME280;1786;52.870;9.578;2023-05-21T09:50:26;100909.44;;;37.57;30.96
3544;BME280;1786;52.870;9.578;2023-05-21T09:52:56;100910.06;;;35.71;32.31
3544;BME280;1786;52.870;9.578;2023-05-21T09:55:25;100904.31;;;36.22;32.08
3544;BME280;1786;52.870;9.578;2023-05-21T09:57:52;100900.63;;;36.43;32.27
3544;BME280;1786;52.870;9.578;2023-05-21T10:00:23;100902.75;;;37.00;31.34
3544;BME280;1786;52.870;9.578;2023-05-21T10:02:59;100904.13;;;36.60;31.99
3544;BME280;1786;52.870;9.578;2023-05-21T10:05:27;100909.28;;;36.25;32.47
3544;BME280;1786;52.870;9.578;2023-05-21T10:08:00;100910.44;;;36.98;32.11
3544;BME280;1786;52.870;9.578;2023-05-21T10:10:30;100902.09;;;36.24;31.89
3544;BME280;1786;52.870;9.578;2023-05-21T10:13:05;100902.72;;;36.95;31.76
3544;BME280;1786;52.870;9.578;2023-05-21T10:15:41;100899.19;;;36.35;32.62
3544;BME280;1786;52.870;9.578;2023-05-21T10:18:09;100904.16;;;36.66;32.00
3544;BME280;1786;52.870;9.578;2023-05-21T10:20:38;100903.91;;;37.52;31.60
3544;BME280;1786;52.870;9.578;2023-05-21T10:23:05;100910.44;;;36.61;31.81
3544;BME280;1786;52.870;9.578;2023-05-21T10:25:33;100897.88;;;36.43;32.28
3544;BME280;1786;52.870;9.578;2023-05-21T10:28:00;100902.41;;;36.54;32.59
3544;BME280;1786;52.870;9.578;2023-05-21T10:30:28;100891.28;;;37.66;31.98
3544;BME280;1786;52.870;9.578;2023-05-21T10:32:57;100895.75;;;36.50;33.06
3544;BME280;1786;52.870;9.578;2023-05-21T10:35:24;100894.81;;;37.57;31.75
3544;BME280;1786;52.870;9.578;2023-05-21T10:37:51;100893.56;;;37.32;31.88
3544;BME280;1786;52.870;9.578;2023-05-21T10:40:19;100892.31;;;37.50;31.63
3544;BME280;1786;52.870;9.578;2023-05-21T10:51:24;100880.88;;;37.26;32.16
3544;BME280;1786;52.870;9.578;2023-05-21T10:54:18;100878.59;;;37.65;31.04
3544;BME280;1786;52.870;9.578;2023-05-21T10:59:56;100878.06;;;39.32;30.70
3544;BME280;1786;52.870;9.578;2023-05-21T11:02:25;100876.78;;;38.32;30.41
3544;BME280;1786;52.870;9.578;2023-05-21T11:04:59;100881.22;;;38.39;30.91
3544;BME280;1786;52.870;9.578;2023-05-21T11:07:52;100879.59;;;38.68;31.02
3544;BME280;1786;52.870;9.578;2023-05-21T11:10:36;100879.03;;;38.51;30.58
3544;BME280;1786;52.870;9.578;2023-05-21T11:13:12;100872.09;;;38.74;30.36
3544;BME280;1786;52.870;9.578;2023-05-21T11:16:01;100877.91;;;38.72;30.36
3544;BME280;1786;52.870;9.578;2023-05-21T11:21:04;100875.13;;;38.42;30.31
3544;BME280;1786;52.870;9.578;2023-05-21T11:26:24;100864.09;;;38.67;30.25
3544;BME280;1786;52.870;9.578;2023-05-21T11:31:32;100862.91;;;39.20;30.61
3544;BME280;1786;52.870;9.578;2023-05-21T11:36:37;100845.41;;;39.89;29.20
3544;BME280;1786;52.870;9.578;2023-05-21T11:39:12;100853.75;;;39.29;30.33
3544;BME280;1786;52.870;9.578;2023-05-21T11:41:59;100846.34;;;39.09;30.11
3544;BME280;1786;52.870;9.578;2023-05-21T11:44:48;100852.50;;;38.35;30.69
3544;BME280;1786;52.870;9.578;2023-05-21T11:47:16;100839.91;;;39.40;29.73
3544;BME280;1786;52.870;9.578;2023-05-21T11:49:44;100842.69;;;39.24;30.06
3544;BME280;1786;52.870;9.578;2023-05-21T11:52:12;100831.53;;;38.18;30.97
3544;BME280;1786;52.870;9.578;2023-05-21T11:54:42;100832.56;;;38.89;30.63
3544;BME280;1786;52.870;9.578;2023-05-21T11:57:12;100831.50;;;38.69;30.63
3544;BME280;1786;52.870;9.578;2023-05-21T11:59:43;100830.25;;;39.27;29.93
3544;BME280;1786;52.870;9.578;2023-05-21T12:02:14;100830.91;;;38.93;29.85
3544;BME280;1786;52.870;9.578;2023-05-21T12:04:48;100836.47;;;39.58;29.50
3544;BME280;1786;52.870;9.578;2023-05-21T12:07:19;100828.25;;;39.92;29.53
3544;BME280;1786;52.870;9.578;2023-05-21T12:09:48;100831.56;;;39.89;28.77
3544;BME280;1786;52.870;9.578;2023-05-21T12:12:16;100836.94;;;39.10;29.46
3544;BME280;1786;52.870;9.578;2023-05-21T12:14:47;100833.44;;;38.28;30.17
3544;BME280;1786;52.870;9.578;2023-05-21T12:17:15;100835.66;;;38.41;29.87
3544;BME280;1786;52.870;9.578;2023-05-21T12:19:44;100815.72;;;37.67;30.39
3544;BME280;1786;52.870;9.578;2023-05-21T12:22:11;100830.72;;;38.48;30.06
3544;BME280;1786;52.870;9.578;2023-05-21T12:24:38;100820.75;;;38.32;30.29
3544;BME280;1786;52.870;9.578;2023-05-21T12:27:06;100828.16;;;39.58;29.73
3544;BME280;1786;52.870;9.578;2023-05-21T12:29:36;100824.22;;;39.14;29.92
3544;BME280;1786;52.870;9.578;2023-05-21T12:32:05;100829.66;;;39.40;30.41
3544;BME280;1786;52.870;9.578;2023-05-21T12:37:05;100826.19;;;39.04;29.49
3544;BME280;1786;52.870;9.578;2023-05-21T12:39:46;100830.13;;;38.36;30.29
3544;BME280;1786;52.870;9.578;2023-05-21T12:42:14;100816.59;;;38.65;29.98
3544;BME280;1786;52.870;9.578;2023-05-21T12:44:46;100821.94;;;39.32;29.29
3544;BME280;1786;52.870;9.578;2023-05-21T12:47:13;100814.66;;;39.46;29.90
3544;BME280;1786;52.870;9.578;2023-05-21T12:49:44;100820.78;;;39.93;28.99
3544;BME280;1786;52.870;9.578;2023-05-21T12:52:12;100810.78;;;40.31;28.22
3544;BME280;1786;52.870;9.578;2023-05-21T12:54:40;100815.97;;;39.59;28.52
3544;BME280;1786;52.870;9.578;2023-05-21T12:57:18;100813.09;;;39.85;30.17
3544;BME280;1786;52.870;9.578;2023-05-21T12:59:46;100817.69;;;39.94;28.83
3544;BME280;1786;52.870;9.578;2023-05-21T13:02:16;100807.41;;;40.05;29.41
3544;BME280;1786;52.870;9.578;2023-05-21T13:04:44;100811.66;;;40.21;28.47
3544;BME280;1786;52.870;9.578;2023-05-21T13:07:11;100800.34;;;40.23;28.62
3544;BME280;1786;52.870;9.578;2023-05-21T13:09:38;100805.66;;;39.80;28.27
3544;BME280;1786;52.870;9.578;2023-05-21T13:12:04;100805.69;;;40.09;28.85
3544;BME280;1786;52.870;9.578;2023-05-21T13:14:31;100810.31;;;39.35;28.58
3544;BME280;1786;52.870;9.578;2023-05-21T13:16:58;100806.19;;;39.82;27.83
3544;BME280;1786;52.870;9.578;2023-05-21T13:19:24;100818.13;;;40.12;27.53
3544;BME280;1786;52.870;9.578;2023-05-21T13:21:52;100803.72;;;39.75;27.40
3544;BME280;1786;52.870;9.578;2023-05-21T13:24:19;100810.66;;;39.73;28.39
3544;BME280;1786;52.870;9.578;2023-05-21T13:26:45;100798.75;;;39.17;28.16
3544;BME280;1786;52.870;9.578;2023-05-21T13:29:12;100792.75;;;39.00;27.75
3544;BME280;1786;52.870;9.578;2023-05-21T13:31:42;100794.28;;;39.81;27.49
3544;BME280;1786;52.870;9.578;2023-05-21T13:34:11;100793.16;;;39.38;27.56
3544;BME280;1786;52.870;9.578;2023-05-21T13:36:38;100793.19;;;39.23;27.93
3544;BME280;1786;52.870;9.578;2023-05-21T13:39:05;100802.06;;;39.20;28.61
3544;BME280;1786;52.870;9.578;2023-05-21T13:41:32;100802.78;;;40.30;27.50
3544;BME280;1786;52.870;9.578;2023-05-21T13:43:59;100798.31;;;41.11;27.53
3544;BME280;1786;52.870;9.578;2023-05-21T13:46:25;100790.66;;;40.50;27.53